Portal, Georgia
Current Conditions -  °F | °C
As of 7:15 PM on Tuesday 25 Nov 2014 (Local Time) from KTBR Reporting Station
Light Rain Light Rain  
Wind Chill: 13°   Ceiling: 6000
Heat Index: 13°   Visibility: 7mi
Dew Point: 13°   Wind: 0mph
Humidity: 100%   Direction: NA
Pressure: 30.03"   Gusts: NA
Location:  32.54°N, 81.93°W
Report Text: KTBR 260015Z AUTO 00000KT 7SM -RA SCT049 OVC060 13/13 A3003 RMK AO2 T01260126
Loading
Personal Weather Stations






























Interactive Weather Map New forecast layout! Learn more

10-Day Weather Forecast

Advertisements
Track Severe Weather on mobile